Terminal Aerodrome Forecast
Issued by NWS

Home | Current Version | Previous Version | Text Only | Print | Product List | Glossary On
Versions: 1 2 3 4 5 6 7 8 9 10 11 12 13
426
FTUS45 KRIW 271136
TAFBPI
TAF
KBPI 271136Z 2712/2812 VRB05KT P6SM SCT060
     FM272000 32011KT P6SM VCSH BKN070
     FM280300 35008KT P6SM SCT080 BKN110
     FM280700 VRB05KT P6SM SCT060 BKN080=

USA.gov is the U.S. government's official web portal to all federal, state and local government web resources and services.